createdAt,value
2023-12-31T00:02:58.032Z,-11153.59
2023-12-31T00:06:04.614Z,-11155.84
2023-12-31T00:09:11.460Z,-11138.00
2023-12-31T00:12:18.058Z,-11154.88
2023-12-31T00:15:24.718Z,-11153.47
2023-12-31T00:18:32.607Z,-11169.50
2023-12-31T00:21:44.369Z,-11144.06
2023-12-31T00:24:52.478Z,-11140.81
2023-12-31T00:27:59.148Z,-11148.41
2023-12-31T00:31:05.643Z,-11128.75
2023-12-31T00:34:13.709Z,-11115.69
2023-12-31T00:37:20.327Z,-11136.88
2023-12-31T00:40:27.057Z,-11130.84
2023-12-31T00:43:33.952Z,-11161.34
2023-12-31T00:46:40.350Z,-11167.09
2023-12-31T00:49:48.186Z,-11166.41
2023-12-31T00:52:55.107Z,-11157.25
2023-12-31T00:56:01.822Z,-11179.31
2023-12-31T00:59:09.028Z,-11155.00
2023-12-31T01:02:16.026Z,-11131.81
2023-12-31T01:05:23.849Z,-11122.56
2023-12-31T01:08:30.097Z,-11140.81
2023-12-31T01:11:36.605Z,-11095.03
2023-12-31T01:14:42.897Z,-11128.47
2023-12-31T01:17:49.129Z,-11136.88
2023-12-31T01:20:56.849Z,-11160.63
2023-12-31T01:24:04.644Z,-11159.50
2023-12-31T01:27:11.036Z,-11156.56
2023-12-31T01:30:17.650Z,-11148.41
2023-12-31T01:33:24.142Z,-11155.00
2023-12-31T01:36:32.108Z,-11160.34
2023-12-31T01:39:38.990Z,-11152.91
2023-12-31T01:42:47.219Z,-11127.47
2023-12-31T01:45:53.747Z,-11139.69
2023-12-31T01:49:00.948Z,-11127.47
2023-12-31T01:52:09.165Z,-11158.66
2023-12-31T01:55:17.065Z,-11149.94
2023-12-31T01:58:24.590Z,-11158.09
2023-12-31T02:01:32.274Z,-11154.59
2023-12-31T02:04:39.065Z,-11152.19
2023-12-31T02:07:47.145Z,-11164.16
2023-12-31T02:10:54.141Z,-11146.16
2023-12-31T02:14:00.741Z,-11157.81
2023-12-31T02:17:07.399Z,-11151.91
2023-12-31T02:20:14.248Z,-11145.88
2023-12-31T02:23:22.318Z,-11155.28
2023-12-31T02:26:31.420Z,-11128.03
2023-12-31T02:29:38.037Z,-11114.69
2023-12-31T02:32:44.689Z,-11141.94
2023-12-31T02:35:51.368Z,-11149.81
2023-12-31T02:38:57.893Z,-11143.91
2023-12-31T02:42:06.969Z,-11160.78
2023-12-31T02:45:13.481Z,-11126.78
2023-12-31T02:48:20.417Z,-11146.16
2023-12-31T02:51:27.031Z,-11136.88
2023-12-31T02:54:33.358Z,-11112.03
2023-12-31T02:57:41.510Z,-11107.69
2023-12-31T03:00:47.892Z,-11120.59
2023-12-31T03:03:54.652Z,-11125.94
2023-12-31T03:07:01.048Z,-11107.97
2023-12-31T03:10:08.952Z,-11116.66
2023-12-31T03:13:17.604Z,-11146.72
2023-12-31T03:16:26.323Z,-11139.97
2023-12-31T03:19:37.118Z,-11148.69
2023-12-31T03:22:43.362Z,-11144.19
2023-12-31T03:25:49.703Z,-11143.06
2023-12-31T03:28:57.682Z,-11154.59
2023-12-31T03:32:04.188Z,-11161.06
2023-12-31T03:35:10.679Z,-11130.69
2023-12-31T03:38:17.153Z,-11135.63
2023-12-31T03:41:23.525Z,-11123.69
2023-12-31T03:44:31.410Z,-11153.88
2023-12-31T03:47:38.259Z,-11141.94
2023-12-31T03:50:44.736Z,-11138.00
2023-12-31T03:53:51.614Z,-11138.56
2023-12-31T03:56:58.040Z,-11151.50
2023-12-31T04:00:07.323Z,-11140.69
2023-12-31T04:03:13.860Z,-11163.31
2023-12-31T04:06:20.081Z,-11161.75
2023-12-31T04:09:26.321Z,-11175.09
2023-12-31T04:12:32.743Z,-11160.06
2023-12-31T04:15:40.430Z,-11151.78
2023-12-31T04:18:47.016Z,-11151.50
2023-12-31T04:21:53.860Z,-11158.25
2023-12-31T04:25:00.482Z,-11150.22
2023-12-31T04:28:07.111Z,-11136.31
2023-12-31T04:31:15.239Z,-11147.13
2023-12-31T04:34:21.962Z,-11155.72
2023-12-31T04:37:28.517Z,-11152.06
2023-12-31T04:40:35.303Z,-11156.41
2023-12-31T04:43:41.827Z,-11151.78
2023-12-31T04:46:49.985Z,-11165.13
2023-12-31T04:49:56.755Z,-11156.28
2023-12-31T04:53:03.729Z,-11164.28
2023-12-31T04:56:20.612Z,-11153.75
2023-12-31T04:59:26.901Z,-11143.06
2023-12-31T05:02:34.846Z,-11153.03
2023-12-31T05:05:41.733Z,-11154.16
2023-12-31T05:08:48.803Z,-11164.72
2023-12-31T05:11:55.502Z,-11151.78
2023-12-31T05:15:02.122Z,-11160.78
2023-12-31T05:18:09.860Z,-11174.25
2023-12-31T05:21:16.561Z,-11173.44
2023-12-31T05:24:23.829Z,-11159.38
2023-12-31T05:27:30.111Z,-11165.28
2023-12-31T05:30:36.861Z,-11179.31
2023-12-31T05:33:45.310Z,-11156.84
2023-12-31T05:36:52.889Z,-11156.00
2023-12-31T05:39:59.319Z,-11127.34
2023-12-31T05:43:06.486Z,-11156.28
2023-12-31T05:46:13.006Z,-11171.03
2023-12-31T05:49:21.081Z,-11187.63
2023-12-31T05:52:27.867Z,-11138.84
2023-12-31T05:55:34.455Z,-11144.19
2023-12-31T05:58:43.688Z,-11131.81
2023-12-31T06:01:50.932Z,-11131.41
2023-12-31T06:04:59.219Z,-11153.47
2023-12-31T06:08:05.842Z,-11172.31
2023-12-31T06:11:12.417Z,-11172.31
2023-12-31T06:14:18.512Z,-11178.34
2023-12-31T06:17:24.849Z,-11177.34
2023-12-31T06:20:32.916Z,-11182.13
2023-12-31T06:23:39.795Z,-11165.84
2023-12-31T06:26:46.517Z,-11175.53
2023-12-31T06:29:53.705Z,-11186.91
2023-12-31T06:33:00.090Z,-11177.22
2023-12-31T06:36:09.319Z,-11163.72
2023-12-31T06:39:17.013Z,-11169.50
2023-12-31T06:45:47.885Z,-11145.59
2023-12-31T06:48:54.365Z,-11172.72
2023-12-31T06:52:02.371Z,-11155.72
2023-12-31T06:55:11.911Z,-11156.56
2023-12-31T06:58:18.636Z,-11163.88
2023-12-31T07:01:25.487Z,-11180.72
2023-12-31T07:04:32.790Z,-11159.22
2023-12-31T07:07:41.975Z,-11157.97
2023-12-31T07:10:48.796Z,-11170.47
2023-12-31T07:13:56.026Z,-11163.88
2023-12-31T07:17:03.604Z,-11186.91
2023-12-31T07:20:10.889Z,-11168.94
2023-12-31T07:23:19.226Z,-11182.69
2023-12-31T07:26:27.188Z,-11183.13
2023-12-31T07:29:34.280Z,-11216.72
2023-12-31T07:32:40.910Z,-11200.97
2023-12-31T07:35:47.350Z,-11153.59
2023-12-31T07:38:55.938Z,-11157.13
2023-12-31T07:42:02.437Z,-11155.16
2023-12-31T07:45:10.590Z,-11173.84
2023-12-31T07:48:17.260Z,-11190.28
2023-12-31T07:51:23.739Z,-11200.97
2023-12-31T07:54:31.930Z,-11206.88
2023-12-31T07:57:38.519Z,-11195.63
2023-12-31T08:00:45.050Z,-11224.59
2023-12-31T08:03:52.257Z,-11216.59
2023-12-31T08:06:58.549Z,-11204.91
2023-12-31T08:10:07.031Z,-11215.31
2023-12-31T08:13:13.731Z,-11206.47
2023-12-31T08:16:20.780Z,-11219.81
2023-12-31T08:19:27.765Z,-11232.75
2023-12-31T08:22:34.307Z,-11215.59
2023-12-31T08:25:43.101Z,-11218.41
2023-12-31T08:28:49.595Z,-11198.44
2023-12-31T08:31:57.390Z,-11213.34
2023-12-31T08:35:03.817Z,-11230.78
2023-12-31T08:38:10.238Z,-11230.78
2023-12-31T08:41:17.909Z,-11210.69
2023-12-31T08:44:24.764Z,-11238.09
2023-12-31T08:47:30.965Z,-11214.75
2023-12-31T08:50:37.520Z,-11238.09
2023-12-31T08:53:44.868Z,-11251.75
2023-12-31T08:56:52.837Z,-11234.75
2023-12-31T08:59:58.978Z,-11251.63
2023-12-31T09:03:05.890Z,-11260.06
2023-12-31T09:06:12.978Z,-11260.47
2023-12-31T09:09:19.263Z,-11246.00
2023-12-31T09:12:27.602Z,-11246.41
2023-12-31T09:15:33.931Z,-11234.75
2023-12-31T09:18:40.502Z,-11257.09
2023-12-31T09:21:47.132Z,-11256.97
2023-12-31T09:24:54.442Z,-11252.75
2023-12-31T09:28:02.102Z,-11256.69
2023-12-31T09:31:08.577Z,-11272.59
2023-12-31T09:34:15.165Z,-11276.09
2023-12-31T09:37:22.325Z,-11234.88
2023-12-31T09:40:28.895Z,-11235.31
2023-12-31T09:43:39.853Z,-11247.97
2023-12-31T09:47:06.050Z,-11249.37
2023-12-31T09:50:17.481Z,-11243.59
2023-12-31T09:53:25.808Z,-11258.09
2023-12-31T09:56:34.774Z,-11255.56
2023-12-31T09:59:43.317Z,-11241.47
2023-12-31T10:02:52.679Z,-11250.50
2023-12-31T10:05:59.739Z,-11247.81
2023-12-31T10:09:08.622Z,-11248.25
2023-12-31T10:12:15.886Z,-11248.81
2023-12-31T10:15:23.982Z,-11261.31
2023-12-31T10:18:32.324Z,-11286.66
2023-12-31T10:21:39.126Z,-11276.81
2023-12-31T10:24:46.785Z,-11226.84
2023-12-31T10:27:53.680Z,-11265.41
2023-12-31T10:31:02.220Z,-11246.69
2023-12-31T10:34:19.097Z,-11224.19
2023-12-31T10:37:25.858Z,-11271.03
2023-12-31T10:40:32.289Z,-11255.41
2023-12-31T10:43:42.223Z,-11255.00
2023-12-31T10:46:54.814Z,-11278.06
2023-12-31T10:50:02.237Z,-11291.16
2023-12-31T10:53:13.232Z,-11293.56
2023-12-31T10:56:20.328Z,-11281.59
2023-12-31T10:59:28.476Z,-11274.97
2023-12-31T11:02:36.582Z,-11288.47
2023-12-31T11:05:45.541Z,-11317.63
2023-12-31T11:08:52.236Z,-11326.38
2023-12-31T11:11:58.810Z,-11323.97
2023-12-31T11:15:10.472Z,-11327.06
2023-12-31T11:18:40.461Z,-11326.94
2023-12-31T11:22:03.836Z,-11335.50
2023-12-31T11:25:10.215Z,-11327.91
2023-12-31T11:28:18.692Z,-11364.25
2023-12-31T11:31:27.091Z,-11317.91
2023-12-31T11:34:41.096Z,-11380.75
2023-12-31T11:37:47.543Z,-11354.38
2023-12-31T11:40:56.368Z,-11373.97
2023-12-31T11:44:03.041Z,-11385.25
2023-12-31T11:47:14.812Z,-11379.63
2023-12-31T11:50:25.841Z,-11328.19
2023-12-31T11:53:50.088Z,-11395.81
2023-12-31T11:56:56.979Z,-11383.13
2023-12-31T12:00:08.067Z,-11405.13
2023-12-31T12:03:16.190Z,-11400.88
2023-12-31T12:06:25.737Z,-11403.84
2023-12-31T12:09:33.022Z,-11398.06
2023-12-31T12:12:39.656Z,-11406.25
2023-12-31T12:15:46.234Z,-11402.72
2023-12-31T12:19:00.686Z,-11425.97
2023-12-31T12:22:08.908Z,-11428.81
2023-12-31T12:25:15.465Z,-11412.03
2023-12-31T12:28:22.507Z,-11418.94
2023-12-31T12:31:36.843Z,-11415.53
2023-12-31T12:34:47.519Z,-11431.63
2023-12-31T12:37:55.826Z,-11431.91
2023-12-31T12:41:03.954Z,-11445.72
2023-12-31T12:44:11.652Z,-11435.56
2023-12-31T12:47:19.054Z,-11431.47
2023-12-31T12:50:27.659Z,-11390.75
2023-12-31T12:53:35.278Z,-11411.03
2023-12-31T12:56:42.030Z,-11425.13
2023-12-31T12:59:48.645Z,-11419.91
2023-12-31T13:02:55.251Z,-11417.78
2023-12-31T13:06:02.550Z,-11420.47
2023-12-31T13:09:12.623Z,-11408.22
2023-12-31T13:12:19.543Z,-11390.75
2023-12-31T13:15:25.835Z,-11411.47
2023-12-31T13:18:32.150Z,-11399.47
2023-12-31T13:21:39.502Z,-11393.84
2023-12-31T13:24:47.105Z,-11379.63
2023-12-31T13:27:53.706Z,-11381.72
2023-12-31T13:31:02.225Z,-11406.94
2023-12-31T13:34:10.772Z,-11408.91
2023-12-31T13:37:17.371Z,-11411.59
2023-12-31T13:40:25.459Z,-11388.75
2023-12-31T13:43:32.136Z,-11386.09
2023-12-31T13:46:38.562Z,-11423.16
2023-12-31T13:49:45.148Z,-11444.59
2023-12-31T13:52:51.823Z,-11399.75
2023-12-31T13:55:59.972Z,-11388.63
2023-12-31T13:59:06.742Z,-11378.34
2023-12-31T14:02:14.050Z,-11373.56
2023-12-31T14:05:20.374Z,-11371.84
2023-12-31T14:08:26.875Z,-11411.31
2023-12-31T14:11:34.978Z,-11417.50
2023-12-31T14:14:41.747Z,-11381.44
2023-12-31T14:17:48.362Z,-11399.63
2023-12-31T14:20:56.363Z,-11396.25
2023-12-31T14:24:03.678Z,-11362.69
2023-12-31T14:27:11.732Z,-11351.84
2023-12-31T14:30:18.552Z,-11377.78
2023-12-31T14:33:25.285Z,-11372.56
2023-12-31T14:36:33.040Z,-11376.78
2023-12-31T14:39:39.731Z,-11391.03
2023-12-31T14:42:47.938Z,-11408.34
2023-12-31T14:45:54.552Z,-11385.53
2023-12-31T14:49:04.153Z,-11400.31
2023-12-31T14:52:12.642Z,-11398.63
2023-12-31T14:55:21.063Z,-11384.13
2023-12-31T14:58:29.122Z,-11365.53
2023-12-31T15:01:35.789Z,-11364.25
2023-12-31T15:04:42.693Z,-11369.88
2023-12-31T15:07:49.499Z,-11342.84
2023-12-31T15:10:56.178Z,-11320.59
2023-12-31T15:14:05.489Z,-11342.13
2023-12-31T15:17:12.476Z,-11330.72
2023-12-31T15:20:19.070Z,-11349.03
2023-12-31T15:23:25.742Z,-11325.09
2023-12-31T15:26:33.261Z,-11336.38
2023-12-31T15:29:41.565Z,-11340.44
2023-12-31T15:32:48.333Z,-11321.16
2023-12-31T15:35:54.939Z,-11303.28
2023-12-31T15:39:01.843Z,-11304.41
2023-12-31T15:42:08.594Z,-11304.81
2023-12-31T15:45:16.720Z,-11308.75
2023-12-31T15:48:23.605Z,-11321.44
2023-12-31T15:51:30.893Z,-11332.28
2023-12-31T15:54:37.506Z,-11299.19
2023-12-31T15:57:43.852Z,-11319.03
2023-12-31T16:00:51.940Z,-11313.97
2023-12-31T16:03:58.326Z,-11309.31
2023-12-31T16:07:04.736Z,-11298.50
2023-12-31T16:10:11.939Z,-11312.28
2023-12-31T16:13:18.622Z,-11315.53
2023-12-31T16:16:26.732Z,-11319.19
2023-12-31T16:19:33.362Z,-11317.78
2023-12-31T16:22:39.857Z,-11319.75
2023-12-31T16:25:46.259Z,-11316.78
2023-12-31T16:28:53.349Z,-11295.25
2023-12-31T16:32:01.104Z,-11312.13
2023-12-31T16:35:10.711Z,-11313.56
2023-12-31T16:38:17.390Z,-11308.19
2023-12-31T16:41:25.778Z,-11295.81
2023-12-31T16:44:32.523Z,-11303.41
2023-12-31T16:47:41.598Z,-11323.41
2023-12-31T16:50:48.091Z,-11274.41
2023-12-31T16:53:59.757Z,-11295.38
2023-12-31T16:57:06.719Z,-11294.41
2023-12-31T17:00:13.927Z,-11295.53
2023-12-31T17:03:21.914Z,-11305.94
2023-12-31T17:06:29.223Z,-11292.16
2023-12-31T17:09:36.543Z,-11298.19
2023-12-31T17:12:43.221Z,-11281.44
2023-12-31T17:15:49.728Z,-11254.44
2023-12-31T17:18:57.881Z,-11276.94
2023-12-31T17:22:04.494Z,-11267.09
2023-12-31T17:25:11.458Z,-11281.72
2023-12-31T17:28:18.002Z,-11256.69
2023-12-31T17:31:24.929Z,-11257.81
2023-12-31T17:34:32.894Z,-11237.28
2023-12-31T17:37:39.729Z,-11244.88
2023-12-31T17:40:46.370Z,-11245.44
2023-12-31T17:43:53.330Z,-11256.69
2023-12-31T17:47:00.329Z,-11269.34
2023-12-31T17:50:09.394Z,-11265.41
2023-12-31T17:53:15.830Z,-11259.22
2023-12-31T17:56:22.791Z,-11262.44
2023-12-31T17:59:29.616Z,-11243.59
2023-12-31T18:02:36.097Z,-11254.44
2023-12-31T18:05:44.315Z,-11251.91
2023-12-31T18:08:50.700Z,-11218.41
2023-12-31T18:11:57.219Z,-11238.25
2023-12-31T18:15:04.002Z,-11211.38
2023-12-31T18:18:11.093Z,-11220.94
2023-12-31T18:21:19.202Z,-11209.56
2023-12-31T18:24:25.802Z,-11229.09
2023-12-31T18:27:32.231Z,-11234.59
2023-12-31T18:30:44.826Z,-11228.53
2023-12-31T18:33:54.194Z,-11228.25
2023-12-31T18:37:02.405Z,-11216.03
2023-12-31T18:40:10.400Z,-11218.69
2023-12-31T18:43:16.759Z,-11242.88
2023-12-31T18:46:25.666Z,-11223.47
2023-12-31T18:49:32.605Z,-11226.72
2023-12-31T18:52:40.503Z,-11220.94
2023-12-31T18:55:47.091Z,-11230.50
2023-12-31T18:58:53.672Z,-11215.47
2023-12-31T19:02:00.252Z,-11219.53
2023-12-31T19:05:07.152Z,-11204.78
2023-12-31T19:08:15.935Z,-11199.56
2023-12-31T19:11:23.848Z,-11183.25
2023-12-31T19:14:30.512Z,-11184.94
2023-12-31T19:17:40.034Z,-11175.94
2023-12-31T19:20:46.758Z,-11205.19
2023-12-31T19:23:54.998Z,-11198.44
2023-12-31T19:27:02.316Z,-11222.91
2023-12-31T19:30:10.717Z,-11194.50
2023-12-31T19:33:18.267Z,-11221.78
2023-12-31T19:36:24.781Z,-11191.13
2023-12-31T19:39:34.561Z,-11201.25
2023-12-31T19:42:43.528Z,-11212.50
2023-12-31T19:45:50.054Z,-11216.88
2023-12-31T19:48:56.902Z,-11204.22
2023-12-31T19:52:03.928Z,-11214.47
2023-12-31T19:55:12.457Z,-11222.63
2023-12-31T19:58:18.929Z,-11215.31
2023-12-31T20:01:25.649Z,-11189.72
2023-12-31T20:04:32.869Z,-11167.94
2023-12-31T20:07:39.525Z,-11183.69
2023-12-31T20:10:47.809Z,-11204.34
2023-12-31T20:13:54.334Z,-11209.69
2023-12-31T20:17:00.990Z,-11218.69
2023-12-31T20:20:08.495Z,-11230.50
2023-12-31T20:23:15.373Z,-11226.84
2023-12-31T20:26:23.145Z,-11211.09
2023-12-31T20:29:30.072Z,-11174.41
2023-12-31T20:32:37.278Z,-11202.38
2023-12-31T20:35:43.962Z,-11192.13
2023-12-31T20:38:50.508Z,-11179.03
2023-12-31T20:41:58.553Z,-11190.84
2023-12-31T20:45:05.590Z,-11178.75
2023-12-31T20:48:12.225Z,-11186.91
2023-12-31T20:51:20.552Z,-11175.53
2023-12-31T20:54:27.142Z,-11207.59
2023-12-31T20:57:35.072Z,-11200.00
2023-12-31T21:00:42.270Z,-11197.31
2023-12-31T21:03:48.679Z,-11205.34
2023-12-31T21:06:56.551Z,-11214.75
2023-12-31T21:10:05.927Z,-11212.50
2023-12-31T21:13:15.968Z,-11217.28
2023-12-31T21:16:22.619Z,-11234.31
2023-12-31T21:19:29.085Z,-11205.47
2023-12-31T21:22:35.924Z,-11200.41
2023-12-31T21:25:45.480Z,-11195.63
2023-12-31T21:28:56.142Z,-11197.59
2023-12-31T21:32:02.742Z,-11207.72
2023-12-31T21:35:10.096Z,-11212.94
2023-12-31T21:38:17.076Z,-11178.75
2023-12-31T21:41:26.082Z,-11209.28
2023-12-31T21:44:33.659Z,-11221.66
2023-12-31T21:47:39.948Z,-11240.63
2023-12-31T21:50:46.508Z,-11229.37
2023-12-31T21:53:52.810Z,-11223.47
2023-12-31T21:57:03.401Z,-11200.69
2023-12-31T22:00:14.336Z,-11187.47
2023-12-31T22:03:22.755Z,-11203.66
2023-12-31T22:06:29.777Z,-11226.28
2023-12-31T22:09:36.322Z,-11212.66
2023-12-31T22:12:43.241Z,-11193.09
2023-12-31T22:15:51.925Z,-11191.69
2023-12-31T22:18:58.305Z,-11206.59
2023-12-31T22:22:05.006Z,-11201.53
2023-12-31T22:25:11.477Z,-11218.69
2023-12-31T22:28:17.921Z,-11190.84
2023-12-31T22:31:25.877Z,-11176.94
2023-12-31T22:34:37.639Z,-11173.97
2023-12-31T22:37:45.145Z,-11218.69
2023-12-31T22:40:51.646Z,-11209.41
2023-12-31T22:43:58.696Z,-11209.41
2023-12-31T22:47:06.455Z,-11196.47
2023-12-31T22:50:14.087Z,-11218.41
2023-12-31T22:53:20.757Z,-11205.19
2023-12-31T22:56:27.019Z,-11172.59
2023-12-31T22:59:33.547Z,-11214.91
2023-12-31T23:02:41.891Z,-11196.75
2023-12-31T23:05:48.305Z,-11187.63
2023-12-31T23:08:54.765Z,-11210.13
2023-12-31T23:12:01.458Z,-11192.25
2023-12-31T23:15:09.830Z,-11184.81
2023-12-31T23:18:17.955Z,-11167.81
2023-12-31T23:21:24.818Z,-11214.63
2023-12-31T23:24:31.148Z,-11181.28
2023-12-31T23:27:37.510Z,-11212.66
2023-12-31T23:30:43.999Z,-11179.03
2023-12-31T23:33:51.889Z,-11203.09
2023-12-31T23:37:05.064Z,-11174.53
2023-12-31T23:40:13.977Z,-11203.94
2023-12-31T23:43:20.726Z,-11187.47
2023-12-31T23:46:27.406Z,-11184.53
2023-12-31T23:49:35.512Z,-11215.03
2023-12-31T23:52:42.156Z,-11203.50
2023-12-31T23:55:48.624Z,-11200.41
2023-12-31T23:58:54.844Z,-11193.94
